Armstrong, Illinois
Current Conditions -  °F | °C
As of 3:30 PM on Monday 24 Nov 2014 (Local Time) from KTIP Reporting Station
Overcast Overcast  
Wind Chill: -5°   Ceiling: 3600
Heat Index:   Visibility: 10mi
Dew Point: -2°   Wind: 22mph
Humidity: 77%   Direction: 250°WSW
Pressure: 29.69"   Gusts: 37mph
Location:  40.31°N, 87.88°W
Report Text: KTIP 242130Z AUTO 25019G32KT 10SM SCT030 OVC036 02/M02 A2969 RMK AO2 T00161021
Loading
Personal Weather Stations






























Interactive Weather Map New forecast layout! Learn more

10-Day Weather Forecast

Advertisements
Track Severe Weather on mobile